sensor_id;sensor_type;location;lat;lon;timestamp;P1;durP1;ratioP1;P2;durP2;ratioP2
53714;SDS011;39608;55.630;37.864;2022-11-21T00:00:15;9.65;;;5.60;;
53714;SDS011;39608;55.630;37.864;2022-11-21T00:05:19;10.40;;;5.75;;
53714;SDS011;39608;55.630;37.864;2022-11-21T00:10:21;12.15;;;5.88;;
53714;SDS011;39608;55.630;37.864;2022-11-21T00:15:24;11.07;;;5.45;;
53714;SDS011;39608;55.630;37.864;2022-11-21T00:20:28;12.02;;;5.40;;
53714;SDS011;39608;55.630;37.864;2022-11-21T00:25:30;15.00;;;5.43;;
53714;SDS011;39608;55.630;37.864;2022-11-21T00:30:32;10.15;;;5.45;;
53714;SDS011;39608;55.630;37.864;2022-11-21T00:35:35;10.52;;;5.60;;
53714;SDS011;39608;55.630;37.864;2022-11-21T00:40:37;12.02;;;5.97;;
53714;SDS011;39608;55.630;37.864;2022-11-21T00:45:39;13.27;;;5.95;;
53714;SDS011;39608;55.630;37.864;2022-11-21T00:50:42;13.93;;;6.53;;
53714;SDS011;39608;55.630;37.864;2022-11-21T00:55:44;16.98;;;7.05;;
53714;SDS011;39608;55.630;37.864;2022-11-21T01:00:46;16.23;;;6.93;;
53714;SDS011;39608;55.630;37.864;2022-11-21T01:05:50;16.02;;;6.57;;
53714;SDS011;39608;55.630;37.864;2022-11-21T01:10:52;13.82;;;7.32;;
53714;SDS011;39608;55.630;37.864;2022-11-21T01:15:54;17.55;;;7.88;;
53714;SDS011;39608;55.630;37.864;2022-11-21T01:20:59;13.60;;;7.20;;
53714;SDS011;39608;55.630;37.864;2022-11-21T01:26:01;19.85;;;7.38;;
53714;SDS011;39608;55.630;37.864;2022-11-21T01:31:04;17.60;;;7.38;;
53714;SDS011;39608;55.630;37.864;2022-11-21T01:36:10;16.23;;;7.53;;
53714;SDS011;39608;55.630;37.864;2022-11-21T01:41:14;13.23;;;7.30;;
53714;SDS011;39608;55.630;37.864;2022-11-21T01:46:18;14.23;;;7.55;;
53714;SDS011;39608;55.630;37.864;2022-11-21T01:51:24;17.20;;;8.13;;
53714;SDS011;39608;55.630;37.864;2022-11-21T01:56:31;17.58;;;9.32;;
53714;SDS011;39608;55.630;37.864;2022-11-21T02:01:38;22.70;;;10.00;;
53714;SDS011;39608;55.630;37.864;2022-11-21T02:06:41;25.02;;;8.90;;
53714;SDS011;39608;55.630;37.864;2022-11-21T02:11:45;17.42;;;9.00;;
53714;SDS011;39608;55.630;37.864;2022-11-21T02:16:51;19.13;;;8.30;;
53714;SDS011;39608;55.630;37.864;2022-11-21T02:22:00;22.90;;;9.25;;
53714;SDS011;39608;55.630;37.864;2022-11-21T02:27:09;17.77;;;8.70;;
53714;SDS011;39608;55.630;37.864;2022-11-21T02:32:19;20.50;;;7.60;;
53714;SDS011;39608;55.630;37.864;2022-11-21T02:37:22;12.02;;;6.85;;
53714;SDS011;39608;55.630;37.864;2022-11-21T02:42:27;13.57;;;6.00;;
53714;SDS011;39608;55.630;37.864;2022-11-21T02:47:33;15.63;;;5.82;;
53714;SDS011;39608;55.630;37.864;2022-11-21T02:52:38;13.00;;;5.82;;
53714;SDS011;39608;55.630;37.864;2022-11-21T02:57:41;10.35;;;5.35;;
53714;SDS011;39608;55.630;37.864;2022-11-21T03:02:43;12.82;;;5.80;;
53714;SDS011;39608;55.630;37.864;2022-11-21T03:07:45;10.90;;;4.88;;
53714;SDS011;39608;55.630;37.864;2022-11-21T03:12:49;9.88;;;4.95;;
53714;SDS011;39608;55.630;37.864;2022-11-21T03:18:00;12.05;;;5.60;;
53714;SDS011;39608;55.630;37.864;2022-11-21T03:23:02;13.13;;;5.60;;
53714;SDS011;39608;55.630;37.864;2022-11-21T03:28:06;13.15;;;5.50;;
53714;SDS011;39608;55.630;37.864;2022-11-21T03:33:08;14.02;;;6.50;;
53714;SDS011;39608;55.630;37.864;2022-11-21T03:38:10;13.27;;;6.85;;
53714;SDS011;39608;55.630;37.864;2022-11-21T03:43:13;12.35;;;5.43;;
53714;SDS011;39608;55.630;37.864;2022-11-21T03:48:15;17.38;;;6.65;;
53714;SDS011;39608;55.630;37.864;2022-11-21T03:53:17;17.10;;;6.38;;
53714;SDS011;39608;55.630;37.864;2022-11-21T03:58:20;17.33;;;6.10;;
53714;SDS011;39608;55.630;37.864;2022-11-21T04:03:22;19.45;;;7.25;;
53714;SDS011;39608;55.630;37.864;2022-11-21T04:08:24;19.30;;;6.82;;
53714;SDS011;39608;55.630;37.864;2022-11-21T04:13:28;16.88;;;7.47;;
53714;SDS011;39608;55.630;37.864;2022-11-21T04:18:30;14.93;;;6.22;;
53714;SDS011;39608;55.630;37.864;2022-11-21T04:23:32;15.05;;;7.22;;
53714;SDS011;39608;55.630;37.864;2022-11-21T04:28:36;23.95;;;6.82;;
53714;SDS011;39608;55.630;37.864;2022-11-21T04:33:38;18.35;;;7.25;;
53714;SDS011;39608;55.630;37.864;2022-11-21T04:38:40;14.77;;;6.68;;
53714;SDS011;39608;55.630;37.864;2022-11-21T04:43:43;19.88;;;7.30;;
53714;SDS011;39608;55.630;37.864;2022-11-21T04:48:45;17.90;;;7.65;;
53714;SDS011;39608;55.630;37.864;2022-11-21T04:53:47;18.23;;;7.45;;
53714;SDS011;39608;55.630;37.864;2022-11-21T04:58:51;19.80;;;7.65;;
53714;SDS011;39608;55.630;37.864;2022-11-21T05:03:53;18.95;;;7.47;;
53714;SDS011;39608;55.630;37.864;2022-11-21T05:08:55;20.92;;;8.23;;
53714;SDS011;39608;55.630;37.864;2022-11-21T05:13:59;18.73;;;7.32;;
53714;SDS011;39608;55.630;37.864;2022-11-21T05:19:01;17.20;;;8.48;;
53714;SDS011;39608;55.630;37.864;2022-11-21T05:24:03;16.63;;;6.88;;
53714;SDS011;39608;55.630;37.864;2022-11-21T05:29:07;21.75;;;8.13;;
53714;SDS011;39608;55.630;37.864;2022-11-21T05:34:09;21.70;;;7.72;;
53714;SDS011;39608;55.630;37.864;2022-11-21T05:39:11;16.80;;;7.05;;
53714;SDS011;39608;55.630;37.864;2022-11-21T05:44:15;18.70;;;8.15;;
53714;SDS011;39608;55.630;37.864;2022-11-21T05:49:17;16.05;;;7.35;;
53714;SDS011;39608;55.630;37.864;2022-11-21T05:54:19;17.25;;;6.55;;
53714;SDS011;39608;55.630;37.864;2022-11-21T05:59:24;19.48;;;7.93;;
53714;SDS011;39608;55.630;37.864;2022-11-21T06:04:26;19.58;;;7.40;;
53714;SDS011;39608;55.630;37.864;2022-11-21T06:09:28;20.15;;;7.50;;
53714;SDS011;39608;55.630;37.864;2022-11-21T06:14:33;14.85;;;6.65;;
53714;SDS011;39608;55.630;37.864;2022-11-21T06:19:35;16.90;;;7.53;;
53714;SDS011;39608;55.630;37.864;2022-11-21T06:24:38;16.33;;;7.30;;
53714;SDS011;39608;55.630;37.864;2022-11-21T06:29:41;21.35;;;6.95;;
53714;SDS011;39608;55.630;37.864;2022-11-21T06:34:43;20.13;;;8.77;;
53714;SDS011;39608;55.630;37.864;2022-11-21T06:39:47;15.07;;;6.80;;
53714;SDS011;39608;55.630;37.864;2022-11-21T06:44:50;20.92;;;7.72;;
53714;SDS011;39608;55.630;37.864;2022-11-21T06:49:52;17.08;;;7.30;;
53714;SDS011;39608;55.630;37.864;2022-11-21T06:54:54;19.40;;;7.95;;
53714;SDS011;39608;55.630;37.864;2022-11-21T06:59:58;16.60;;;7.53;;
53714;SDS011;39608;55.630;37.864;2022-11-21T07:05:00;24.23;;;8.73;;
53714;SDS011;39608;55.630;37.864;2022-11-21T07:10:04;19.92;;;7.53;;
53714;SDS011;39608;55.630;37.864;2022-11-21T07:15:09;12.52;;;6.97;;
53714;SDS011;39608;55.630;37.864;2022-11-21T07:20:11;17.08;;;7.85;;
53714;SDS011;39608;55.630;37.864;2022-11-21T07:25:15;15.25;;;7.60;;
53714;SDS011;39608;55.630;37.864;2022-11-21T07:30:19;17.73;;;7.70;;
53714;SDS011;39608;55.630;37.864;2022-11-21T07:35:23;14.32;;;6.95;;
53714;SDS011;39608;55.630;37.864;2022-11-21T07:40:26;15.35;;;7.15;;
53714;SDS011;39608;55.630;37.864;2022-11-21T07:45:30;22.63;;;8.60;;
53714;SDS011;39608;55.630;37.864;2022-11-21T07:50:32;15.73;;;7.63;;
53714;SDS011;39608;55.630;37.864;2022-11-21T07:55:34;18.10;;;8.85;;
53714;SDS011;39608;55.630;37.864;2022-11-21T08:00:38;15.60;;;7.45;;
53714;SDS011;39608;55.630;37.864;2022-11-21T08:05:42;14.32;;;8.20;;
53714;SDS011;39608;55.630;37.864;2022-11-21T08:10:45;17.38;;;8.40;;
53714;SDS011;39608;55.630;37.864;2022-11-21T08:15:48;17.95;;;8.65;;
53714;SDS011;39608;55.630;37.864;2022-11-21T08:20:50;20.02;;;8.02;;
53714;SDS011;39608;55.630;37.864;2022-11-21T08:25:52;16.52;;;7.38;;
53714;SDS011;39608;55.630;37.864;2022-11-21T08:30:56;15.25;;;7.95;;
53714;SDS011;39608;55.630;37.864;2022-11-21T08:35:58;16.77;;;7.72;;
53714;SDS011;39608;55.630;37.864;2022-11-21T08:41:00;15.93;;;7.93;;
53714;SDS011;39608;55.630;37.864;2022-11-21T08:46:20;12.93;;;6.88;;
53714;SDS011;39608;55.630;37.864;2022-11-21T08:51:26;19.60;;;8.93;;
53714;SDS011;39608;55.630;37.864;2022-11-21T08:56:28;18.45;;;8.85;;
53714;SDS011;39608;55.630;37.864;2022-11-21T09:01:31;16.25;;;7.35;;
53714;SDS011;39608;55.630;37.864;2022-11-21T09:06:34;12.68;;;8.07;;
53714;SDS011;39608;55.630;37.864;2022-11-21T09:11:36;15.18;;;7.35;;
53714;SDS011;39608;55.630;37.864;2022-11-21T09:16:39;14.45;;;7.50;;
53714;SDS011;39608;55.630;37.864;2022-11-21T09:21:59;10.00;;;6.82;;
53714;SDS011;39608;55.630;37.864;2022-11-21T09:27:03;12.60;;;7.20;;
53714;SDS011;39608;55.630;37.864;2022-11-21T09:32:06;19.05;;;7.93;;
53714;SDS011;39608;55.630;37.864;2022-11-21T09:37:08;18.70;;;8.65;;
53714;SDS011;39608;55.630;37.864;2022-11-21T09:42:22;19.50;;;8.23;;
53714;SDS011;39608;55.630;37.864;2022-11-21T09:47:41;15.50;;;8.07;;
53714;SDS011;39608;55.630;37.864;2022-11-21T09:52:45;20.13;;;8.88;;
53714;SDS011;39608;55.630;37.864;2022-11-21T10:02:55;14.70;;;8.27;;
53714;SDS011;39608;55.630;37.864;2022-11-21T10:07:57;19.20;;;9.15;;
53714;SDS011;39608;55.630;37.864;2022-11-21T10:13:12;20.95;;;8.77;;
53714;SDS011;39608;55.630;37.864;2022-11-21T10:18:34;17.48;;;9.77;;
53714;SDS011;39608;55.630;37.864;2022-11-21T10:24:05;13.35;;;6.82;;
53714;SDS011;39608;55.630;37.864;2022-11-21T10:29:19;14.27;;;6.97;;
53714;SDS011;39608;55.630;37.864;2022-11-21T10:34:28;13.88;;;7.18;;
53714;SDS011;39608;55.630;37.864;2022-11-21T10:39:32;13.27;;;6.87;;
53714;SDS011;39608;55.630;37.864;2022-11-21T10:44:37;13.52;;;7.15;;
53714;SDS011;39608;55.630;37.864;2022-11-21T10:50:00;12.90;;;6.50;;
53714;SDS011;39608;55.630;37.864;2022-11-21T10:55:13;12.70;;;5.85;;
53714;SDS011;39608;55.630;37.864;2022-11-21T11:00:17;12.77;;;6.28;;
53714;SDS011;39608;55.630;37.864;2022-11-21T11:05:24;14.18;;;6.22;;
53714;SDS011;39608;55.630;37.864;2022-11-21T11:10:27;13.10;;;6.68;;
53714;SDS011;39608;55.630;37.864;2022-11-21T11:15:29;10.73;;;6.72;;
53714;SDS011;39608;55.630;37.864;2022-11-21T11:20:34;17.02;;;7.00;;
53714;SDS011;39608;55.630;37.864;2022-11-21T11:25:38;13.97;;;6.67;;
53714;SDS011;39608;55.630;37.864;2022-11-21T11:30:40;10.45;;;5.88;;
53714;SDS011;39608;55.630;37.864;2022-11-21T11:35:44;10.23;;;6.85;;
53714;SDS011;39608;55.630;37.864;2022-11-21T11:40:47;11.27;;;6.78;;
53714;SDS011;39608;55.630;37.864;2022-11-21T11:45:56;9.20;;;5.93;;
53714;SDS011;39608;55.630;37.864;2022-11-21T11:51:30;12.38;;;6.40;;
53714;SDS011;39608;55.630;37.864;2022-11-21T11:56:37;13.48;;;5.68;;
53714;SDS011;39608;55.630;37.864;2022-11-21T12:01:41;10.18;;;5.30;;
53714;SDS011;39608;55.630;37.864;2022-11-21T12:06:49;10.85;;;4.80;;
53714;SDS011;39608;55.630;37.864;2022-11-21T12:11:56;10.30;;;5.22;;
53714;SDS011;39608;55.630;37.864;2022-11-21T12:17:10;8.20;;;4.97;;
53714;SDS011;39608;55.630;37.864;2022-11-21T12:22:17;6.75;;;4.63;;
53714;SDS011;39608;55.630;37.864;2022-11-21T12:27:20;7.53;;;4.75;;
53714;SDS011;39608;55.630;37.864;2022-11-21T12:32:32;7.50;;;5.15;;
53714;SDS011;39608;55.630;37.864;2022-11-21T12:37:53;10.02;;;5.57;;
53714;SDS011;39608;55.630;37.864;2022-11-21T12:43:06;10.07;;;4.65;;
53714;SDS011;39608;55.630;37.864;2022-11-21T12:48:29;7.25;;;4.80;;
53714;SDS011;39608;55.630;37.864;2022-11-21T12:54:01;11.57;;;4.23;;
53714;SDS011;39608;55.630;37.864;2022-11-21T12:59:30;10.85;;;5.57;;
53714;SDS011;39608;55.630;37.864;2022-11-21T13:04:41;9.60;;;5.15;;
53714;SDS011;39608;55.630;37.864;2022-11-21T13:09:49;11.83;;;4.27;;
53714;SDS011;39608;55.630;37.864;2022-11-21T13:14:57;8.70;;;4.78;;
53714;SDS011;39608;55.630;37.864;2022-11-21T13:20:13;7.93;;;4.82;;
53714;SDS011;39608;55.630;37.864;2022-11-21T13:25:37;14.90;;;4.82;;
53714;SDS011;39608;55.630;37.864;2022-11-21T13:30:45;9.38;;;4.47;;
53714;SDS011;39608;55.630;37.864;2022-11-21T13:35:57;7.80;;;4.65;;
53714;SDS011;39608;55.630;37.864;2022-11-21T13:41:00;8.38;;;4.10;;
53714;SDS011;39608;55.630;37.864;2022-11-21T13:51:55;9.80;;;4.57;;
53714;SDS011;39608;55.630;37.864;2022-11-21T13:57:05;7.47;;;4.13;;
53714;SDS011;39608;55.630;37.864;2022-11-21T14:02:34;11.30;;;4.50;;
53714;SDS011;39608;55.630;37.864;2022-11-21T14:07:51;8.13;;;4.32;;
53714;SDS011;39608;55.630;37.864;2022-11-21T14:12:55;8.52;;;5.03;;
53714;SDS011;39608;55.630;37.864;2022-11-21T14:17:59;7.38;;;4.55;;
53714;SDS011;39608;55.630;37.864;2022-11-21T14:23:03;7.93;;;5.10;;
53714;SDS011;39608;55.630;37.864;2022-11-21T14:28:09;8.02;;;4.25;;
53714;SDS011;39608;55.630;37.864;2022-11-21T14:33:21;8.15;;;5.00;;
53714;SDS011;39608;55.630;37.864;2022-11-21T14:38:25;10.52;;;5.38;;
53714;SDS011;39608;55.630;37.864;2022-11-21T14:43:31;8.25;;;4.47;;
53714;SDS011;39608;55.630;37.864;2022-11-21T14:48:34;11.40;;;4.90;;
53714;SDS011;39608;55.630;37.864;2022-11-21T14:53:38;12.10;;;5.28;;
53714;SDS011;39608;55.630;37.864;2022-11-21T14:58:43;8.25;;;4.32;;
53714;SDS011;39608;55.630;37.864;2022-11-21T15:03:53;8.93;;;5.20;;
53714;SDS011;39608;55.630;37.864;2022-11-21T15:08:55;7.07;;;4.25;;
53714;SDS011;39608;55.630;37.864;2022-11-21T15:13:59;7.30;;;4.65;;
53714;SDS011;39608;55.630;37.864;2022-11-21T15:19:07;8.98;;;4.90;;
53714;SDS011;39608;55.630;37.864;2022-11-21T15:24:17;12.68;;;5.50;;
53714;SDS011;39608;55.630;37.864;2022-11-21T15:29:29;10.00;;;5.72;;
53714;SDS011;39608;55.630;37.864;2022-11-21T15:34:31;8.07;;;5.28;;
53714;SDS011;39608;55.630;37.864;2022-11-21T15:39:34;14.05;;;6.28;;
53714;SDS011;39608;55.630;37.864;2022-11-21T15:44:38;9.48;;;5.22;;
53714;SDS011;39608;55.630;37.864;2022-11-21T15:49:58;13.95;;;6.03;;
53714;SDS011;39608;55.630;37.864;2022-11-21T15:55:00;11.57;;;5.50;;
53714;SDS011;39608;55.630;37.864;2022-11-21T16:00:04;12.20;;;5.45;;
53714;SDS011;39608;55.630;37.864;2022-11-21T16:05:09;8.57;;;5.35;;
53714;SDS011;39608;55.630;37.864;2022-11-21T16:10:13;10.05;;;5.05;;
53714;SDS011;39608;55.630;37.864;2022-11-21T16:15:16;11.50;;;5.30;;
53714;SDS011;39608;55.630;37.864;2022-11-21T16:20:18;6.80;;;4.47;;
53714;SDS011;39608;55.630;37.864;2022-11-21T16:25:21;10.90;;;5.22;;
53714;SDS011;39608;55.630;37.864;2022-11-21T16:30:24;10.70;;;5.00;;
53714;SDS011;39608;55.630;37.864;2022-11-21T16:35:26;5.85;;;3.75;;
53714;SDS011;39608;55.630;37.864;2022-11-21T16:40:31;8.05;;;4.68;;
53714;SDS011;39608;55.630;37.864;2022-11-21T16:45:35;8.75;;;4.43;;
53714;SDS011;39608;55.630;37.864;2022-11-21T16:50:38;7.75;;;4.32;;
53714;SDS011;39608;55.630;37.864;2022-11-21T16:55:40;7.85;;;4.55;;
53714;SDS011;39608;55.630;37.864;2022-11-21T17:00:43;9.48;;;5.10;;
53714;SDS011;39608;55.630;37.864;2022-11-21T17:05:54;12.45;;;5.38;;
53714;SDS011;39608;55.630;37.864;2022-11-21T17:10:57;13.18;;;5.22;;
53714;SDS011;39608;55.630;37.864;2022-11-21T17:16:04;11.13;;;5.50;;
53714;SDS011;39608;55.630;37.864;2022-11-21T17:21:07;9.20;;;4.95;;
53714;SDS011;39608;55.630;37.864;2022-11-21T17:26:12;8.07;;;5.47;;
53714;SDS011;39608;55.630;37.864;2022-11-21T17:31:17;9.63;;;5.60;;
53714;SDS011;39608;55.630;37.864;2022-11-21T17:36:21;12.98;;;5.65;;
53714;SDS011;39608;55.630;37.864;2022-11-21T17:41:25;9.57;;;5.65;;
53714;SDS011;39608;55.630;37.864;2022-11-21T17:46:29;13.38;;;6.05;;
53714;SDS011;39608;55.630;37.864;2022-11-21T17:51:31;12.80;;;6.63;;
53714;SDS011;39608;55.630;37.864;2022-11-21T17:56:34;11.88;;;5.80;;
53714;SDS011;39608;55.630;37.864;2022-11-21T18:01:39;12.10;;;6.55;;
53714;SDS011;39608;55.630;37.864;2022-11-21T18:06:41;9.80;;;6.15;;
53714;SDS011;39608;55.630;37.864;2022-11-21T18:11:44;9.98;;;6.28;;
53714;SDS011;39608;55.630;37.864;2022-11-21T18:16:47;15.45;;;6.57;;
53714;SDS011;39608;55.630;37.864;2022-11-21T18:21:49;15.15;;;6.60;;
53714;SDS011;39608;55.630;37.864;2022-11-21T18:26:53;11.60;;;5.88;;
53714;SDS011;39608;55.630;37.864;2022-11-21T18:31:56;11.75;;;6.22;;
53714;SDS011;39608;55.630;37.864;2022-11-21T18:36:58;13.13;;;6.78;;
53714;SDS011;39608;55.630;37.864;2022-11-21T18:42:00;10.35;;;6.10;;
53714;SDS011;39608;55.630;37.864;2022-11-21T18:47:03;13.73;;;5.72;;
53714;SDS011;39608;55.630;37.864;2022-11-21T18:52:05;13.07;;;6.57;;
53714;SDS011;39608;55.630;37.864;2022-11-21T18:57:07;11.23;;;6.05;;
53714;SDS011;39608;55.630;37.864;2022-11-21T19:02:11;15.20;;;6.22;;
53714;SDS011;39608;55.630;37.864;2022-11-21T19:07:13;12.25;;;6.20;;
53714;SDS011;39608;55.630;37.864;2022-11-21T19:12:15;13.18;;;5.93;;
53714;SDS011;39608;55.630;37.864;2022-11-21T19:17:19;13.30;;;6.35;;
53714;SDS011;39608;55.630;37.864;2022-11-21T19:22:21;12.07;;;6.90;;
53714;SDS011;39608;55.630;37.864;2022-11-21T19:27:25;13.07;;;6.28;;
53714;SDS011;39608;55.630;37.864;2022-11-21T19:32:28;13.35;;;6.35;;
53714;SDS011;39608;55.630;37.864;2022-11-21T19:37:33;13.52;;;6.40;;
53714;SDS011;39608;55.630;37.864;2022-11-21T19:42:35;15.45;;;6.47;;
53714;SDS011;39608;55.630;37.864;2022-11-21T19:47:39;16.35;;;7.40;;
53714;SDS011;39608;55.630;37.864;2022-11-21T19:52:42;13.73;;;6.55;;
53714;SDS011;39608;55.630;37.864;2022-11-21T19:57:44;18.58;;;6.88;;
53714;SDS011;39608;55.630;37.864;2022-11-21T20:02:47;14.77;;;6.63;;
53714;SDS011;39608;55.630;37.864;2022-11-21T20:07:49;13.68;;;6.55;;
53714;SDS011;39608;55.630;37.864;2022-11-21T20:12:57;12.43;;;6.20;;
53714;SDS011;39608;55.630;37.864;2022-11-21T20:18:01;15.88;;;7.78;;
53714;SDS011;39608;55.630;37.864;2022-11-21T20:23:04;15.27;;;7.15;;
53714;SDS011;39608;55.630;37.864;2022-11-21T20:28:06;13.40;;;7.13;;
53714;SDS011;39608;55.630;37.864;2022-11-21T20:33:09;13.75;;;6.68;;
53714;SDS011;39608;55.630;37.864;2022-11-21T20:38:11;11.18;;;6.85;;
53714;SDS011;39608;55.630;37.864;2022-11-21T20:43:14;14.60;;;6.93;;
53714;SDS011;39608;55.630;37.864;2022-11-21T20:48:17;13.20;;;6.88;;
53714;SDS011;39608;55.630;37.864;2022-11-21T20:53:19;10.95;;;6.10;;
53714;SDS011;39608;55.630;37.864;2022-11-21T20:58:22;15.93;;;6.60;;
53714;SDS011;39608;55.630;37.864;2022-11-21T21:03:25;12.48;;;5.70;;
53714;SDS011;39608;55.630;37.864;2022-11-21T21:08:30;11.60;;;6.32;;
53714;SDS011;39608;55.630;37.864;2022-11-21T21:13:32;18.42;;;6.70;;
53714;SDS011;39608;55.630;37.864;2022-11-21T21:18:36;11.98;;;6.50;;
53714;SDS011;39608;55.630;37.864;2022-11-21T21:23:39;12.70;;;6.38;;
53714;SDS011;39608;55.630;37.864;2022-11-21T21:28:43;14.00;;;6.03;;
53714;SDS011;39608;55.630;37.864;2022-11-21T21:33:47;10.93;;;5.63;;
53714;SDS011;39608;55.630;37.864;2022-11-21T21:38:49;19.17;;;6.97;;
53714;SDS011;39608;55.630;37.864;2022-11-21T21:43:51;13.45;;;5.97;;
53714;SDS011;39608;55.630;37.864;2022-11-21T21:48:56;12.13;;;5.95;;
53714;SDS011;39608;55.630;37.864;2022-11-21T21:53:58;10.60;;;5.70;;
53714;SDS011;39608;55.630;37.864;2022-11-21T21:59:00;10.95;;;6.43;;
53714;SDS011;39608;55.630;37.864;2022-11-21T22:04:04;11.88;;;5.85;;
53714;SDS011;39608;55.630;37.864;2022-11-21T22:09:06;10.38;;;5.70;;
53714;SDS011;39608;55.630;37.864;2022-11-21T22:14:09;13.27;;;5.65;;
53714;SDS011;39608;55.630;37.864;2022-11-21T22:19:13;10.23;;;5.63;;
53714;SDS011;39608;55.630;37.864;2022-11-21T22:24:15;12.90;;;6.43;;
53714;SDS011;39608;55.630;37.864;2022-11-21T22:29:17;12.50;;;5.47;;
53714;SDS011;39608;55.630;37.864;2022-11-21T22:34:21;9.40;;;5.30;;
53714;SDS011;39608;55.630;37.864;2022-11-21T22:39:24;11.77;;;6.30;;
53714;SDS011;39608;55.630;37.864;2022-11-21T22:44:26;13.52;;;5.90;;
53714;SDS011;39608;55.630;37.864;2022-11-21T22:49:33;11.05;;;6.35;;
53714;SDS011;39608;55.630;37.864;2022-11-21T22:54:35;16.52;;;6.68;;
53714;SDS011;39608;55.630;37.864;2022-11-21T22:59:37;12.73;;;6.30;;
53714;SDS011;39608;55.630;37.864;2022-11-21T23:04:40;11.27;;;5.88;;
53714;SDS011;39608;55.630;37.864;2022-11-21T23:09:42;13.75;;;6.38;;
53714;SDS011;39608;55.630;37.864;2022-11-21T23:14:44;15.25;;;7.30;;
53714;SDS011;39608;55.630;37.864;2022-11-21T23:19:48;11.32;;;6.55;;
53714;SDS011;39608;55.630;37.864;2022-11-21T23:24:50;13.73;;;7.22;;
53714;SDS011;39608;55.630;37.864;2022-11-21T23:29:52;10.25;;;6.18;;
53714;SDS011;39608;55.630;37.864;2022-11-21T23:34:55;13.27;;;6.20;;
53714;SDS011;39608;55.630;37.864;2022-11-21T23:39:57;15.27;;;6.97;;
53714;SDS011;39608;55.630;37.864;2022-11-21T23:44:59;15.98;;;7.53;;
53714;SDS011;39608;55.630;37.864;2022-11-21T23:50:03;12.30;;;6.38;;
53714;SDS011;39608;55.630;37.864;2022-11-21T23:55:06;11.70;;;6.53;;
